Time;durP1;ratioP1;P1;durP2;ratioP2;P2;SDS_P1;SDS_P2;PMS_P1;PMS_P2;Temp;Humidity;BMP_temperature;BMP_pressure;BME280_temperature;BME280_humidity;BME280_pressure;Samples;Min_cycle;Max_cycle;Signal;HPM_P1;HPM_P2
2022/12/04 00:01:24;;;;;;;27.02;13.70;;;;;;;3.72;93.12;97794.03;4203375;28;20197;-81
2022/12/04 00:03:27;;;;;;;30.05;14.98;;;;;;;3.74;91.92;97794.78;4200645;28;20289;-81
2022/12/04 00:05:30;;;;;;;27.48;13.55;;;;;;;3.69;92.16;97799.31;4199361;28;20206;-82
2022/12/04 00:07:33;;;;;;;23.20;14.05;;;;;;;3.67;92.68;97802.88;4201158;28;20205;-81
2022/12/04 00:09:37;;;;;;;23.77;13.55;;;;;;;3.68;93.17;97789.91;4205010;28;20632;-81
2022/12/04 00:11:41;;;;;;;26.35;14.00;;;;;;;3.72;92.47;97794.03;4200672;28;20653;-81
2022/12/04 00:13:44;;;;;;;24.50;14.18;;;;;;;3.74;92.32;97802.50;4199116;28;20204;-81
2022/12/04 00:15:47;;;;;;;26.48;14.63;;;;;;;3.76;92.47;97803.31;4189654;28;20244;-81
2022/12/04 00:17:51;;;;;;;25.63;14.00;;;;;;;3.78;92.36;97801.47;4202137;28;20216;-82
2022/12/04 00:19:54;;;;;;;25.02;13.80;;;;;;;3.81;91.99;97801.34;4199588;28;20283;-82
2022/12/04 00:21:57;;;;;;;26.92;14.30;;;;;;;3.83;92.67;97791.78;4201156;28;20212;-81
2022/12/04 00:24:00;;;;;;;26.52;14.20;;;;;;;3.80;91.93;97791.91;4204016;28;20201;-81
2022/12/04 00:26:05;;;;;;;28.60;15.25;;;;;;;3.80;92.22;97790.19;4179756;28;20680;-82
2022/12/04 00:28:09;;;;;;;27.70;14.48;;;;;;;3.85;91.08;97787.41;4187645;28;20210;-81
2022/12/04 00:30:13;;;;;;;30.63;16.73;;;;;;;3.83;92.34;97786.63;4201520;28;20861;-81
2022/12/04 00:32:17;;;;;;;30.23;15.80;;;;;;;3.80;91.85;97787.63;4182447;28;20217;-81
2022/12/04 00:34:21;;;;;;;22.83;13.93;;;;;;;3.80;91.63;97787.63;4201580;28;20669;-81
2022/12/04 00:36:26;;;;;;;27.27;14.32;;;;;;;3.82;91.77;97784.97;4188285;28;20249;-81
2022/12/04 00:38:29;;;;;;;25.45;13.63;;;;;;;3.85;92.21;97787.41;4208491;28;20232;-81
2022/12/04 00:40:32;;;;;;;24.27;14.48;;;;;;;3.86;91.68;97786.47;4209766;28;20980;-81
2022/12/04 00:42:35;;;;;;;23.83;12.75;;;;;;;3.84;91.96;97783.97;4204957;28;20201;-81
2022/12/04 00:44:39;;;;;;;25.70;13.82;;;;;;;3.85;92.32;97775.34;4197305;28;20217;-82
2022/12/04 00:46:42;;;;;;;26.98;13.70;;;;;;;3.88;91.56;97784.69;4199367;28;20208;-81
2022/12/04 00:48:46;;;;;;;22.95;12.45;;;;;;;3.88;91.76;97780.34;4202641;28;20292;-82
2022/12/04 00:50:49;;;;;;;23.30;12.38;;;;;;;3.90;91.69;97790.59;4201939;28;20540;-81
2022/12/04 00:52:52;;;;;;;24.15;13.05;;;;;;;3.89;91.79;97781.19;4204785;28;20205;-81
2022/12/04 00:54:55;;;;;;;21.17;12.35;;;;;;;3.95;92.00;97789.44;4189366;28;20205;-81
2022/12/04 00:56:58;;;;;;;25.02;13.98;;;;;;;3.97;91.80;97785.06;4201177;28;20221;-81
2022/12/04 00:59:01;;;;;;;22.08;12.82;;;;;;;4.00;91.60;97784.94;4196303;28;20201;-81
2022/12/04 01:01:07;;;;;;;26.52;13.75;;;;;;;3.99;91.56;97787.59;4202223;28;20949;-81
2022/12/04 01:03:11;;;;;;;24.73;12.38;;;;;;;3.98;91.41;97780.75;4185513;28;20201;-81
2022/12/04 01:05:14;;;;;;;23.33;12.93;;;;;;;4.00;91.33;97784.06;4201004;28;20233;-81
2022/12/04 01:07:17;;;;;;;26.85;13.43;;;;;;;3.96;91.44;97769.66;4201899;28;20601;-82
2022/12/04 01:09:20;;;;;;;26.10;13.90;;;;;;;3.95;91.60;97778.31;4198461;28;20201;-81
2022/12/04 01:11:24;;;;;;;23.80;12.93;;;;;;;3.98;90.96;97775.59;4200191;28;20236;-81
2022/12/04 01:13:27;;;;;;;22.33;11.73;;;;;;;4.01;92.02;97775.44;4190916;28;20701;-81
2022/12/04 01:15:30;;;;;;;23.38;13.07;;;;;;;4.04;91.55;97770.97;4205219;28;20201;-81
2022/12/04 01:17:35;;;;;;;22.80;11.65;;;;;;;4.07;92.23;97770.00;4200824;28;20217;-81
2022/12/04 01:19:38;;;;;;;24.83;12.63;;;;;;;4.05;90.75;97766.66;4189516;28;20205;-81
2022/12/04 01:21:41;;;;;;;25.35;13.68;;;;;;;4.08;91.83;97771.66;4203728;28;20204;-81
2022/12/04 01:23:44;;;;;;;23.08;12.57;;;;;;;4.09;91.34;97765.59;4203974;28;20209;-81
2022/12/04 01:25:51;;;;;;;18.58;11.02;;;;;;;4.05;90.70;97766.66;4200130;28;20212;-81
2022/12/04 01:27:54;;;;;;;24.08;12.77;;;;;;;4.02;91.85;97766.81;4198329;28;20204;-82
2022/12/04 01:29:57;;;;;;;21.60;11.60;;;;;;;3.99;91.75;97769.53;4190141;28;20673;-82
2022/12/04 01:32:00;;;;;;;22.58;12.73;;;;;;;3.99;91.11;97770.34;4185852;28;20210;-81
2022/12/04 01:34:05;;;;;;;24.63;12.85;;;;;;;4.02;91.48;97772.78;4189550;28;20334;-81
2022/12/04 01:36:10;;;;;;;25.20;12.55;;;;;;;4.02;91.23;97767.63;4206267;28;20227;-81
2022/12/04 01:38:13;;;;;;;25.30;12.38;;;;;;;3.98;91.60;97767.84;4192789;28;20315;-81
2022/12/04 01:40:16;;;;;;;24.08;12.48;;;;;;;3.98;91.82;97760.94;4189708;28;20209;-81
2022/12/04 01:42:19;;;;;;;24.52;11.98;;;;;;;4.03;92.82;97756.41;4195368;28;20744;-82
2022/12/04 01:44:24;;;;;;;22.45;13.02;;;;;;;4.06;92.65;97764.00;4202069;28;20216;-81
2022/12/04 01:46:27;;;;;;;27.05;12.57;;;;;;;4.05;91.88;97758.91;4202851;28;20201;-82
2022/12/04 01:48:32;;;;;;;22.20;13.25;;;;;;;4.03;91.42;97760.72;4199986;28;20664;-81
2022/12/04 01:50:37;;;;;;;24.65;13.10;;;;;;;4.03;91.69;97763.28;4201088;28;20201;-82
2022/12/04 01:52:40;;;;;;;25.33;13.57;;;;;;;4.05;92.36;97767.47;4200837;28;20290;-82
2022/12/04 01:54:46;;;;;;;24.10;12.13;;;;;;;4.08;92.19;97766.50;4202250;28;20209;-81
2022/12/04 01:56:51;;;;;;;22.77;11.73;;;;;;;4.07;91.67;97764.84;4184518;28;20721;-81
2022/12/04 01:58:57;;;;;;;25.27;13.27;;;;;;;4.05;92.29;97766.66;4215043;28;20262;-81
2022/12/04 02:01:02;;;;;;;24.27;13.52;;;;;;;3.95;92.46;97765.41;4197538;28;20213;-82
2022/12/04 02:03:12;;;;;;;27.90;14.48;;;;;;;3.87;93.47;97768.34;4201773;28;20574;-81
2022/12/04 02:05:19;;;;;;;24.58;13.40;;;;;;;3.87;93.19;97770.09;4203471;28;20228;-81
2022/12/04 02:07:45;;;;;;;24.85;13.50;;;;;;;3.84;93.15;97771.06;4200485;28;20275;-81
2022/12/04 02:09:54;;;;;;;25.90;13.73;;;;;;;3.90;93.79;97772.53;4189381;28;20259;-82
2022/12/04 02:12:05;;;;;;;25.58;13.38;;;;;;;3.87;93.37;97772.69;4196628;28;20201;-81
2022/12/04 02:14:13;;;;;;;27.63;14.35;;;;;;;3.89;93.54;97768.28;4206167;28;20247;-82
2022/12/04 02:16:20;;;;;;;26.55;14.65;;;;;;;3.94;94.31;97768.88;4198200;28;20219;-81
2022/12/04 02:18:30;;;;;;;23.65;12.93;;;;;;;4.00;92.72;97761.72;4203417;28;20558;-81
2022/12/04 02:20:36;;;;;;;26.35;13.93;;;;;;;4.01;93.08;97763.38;4198907;28;20211;-81
2022/12/04 02:22:54;;;;;;;27.55;14.45;;;;;;;4.03;93.55;97765.88;4189175;28;20214;-81
2022/12/04 02:25:00;;;;;;;32.45;15.18;;;;;;;4.02;93.58;97761.66;4203606;28;20210;-81
2022/12/04 02:27:04;;;;;;;28.88;14.43;;;;;;;4.00;93.20;97768.59;4203719;28;20204;-82
2022/12/04 02:29:12;;;;;;;26.42;13.55;;;;;;;3.95;93.50;97755.91;4201396;28;20197;-81
2022/12/04 02:31:18;;;;;;;27.02;14.98;;;;;;;3.96;94.07;97761.94;4199049;28;20201;-82
2022/12/04 02:33:24;;;;;;;29.38;15.88;;;;;;;3.99;94.49;97759.22;4191353;28;20213;-81
2022/12/04 02:35:30;;;;;;;27.27;13.95;;;;;;;3.97;93.31;97754.13;4191943;28;20198;-81
2022/12/04 02:37:37;;;;;;;28.42;14.43;;;;;;;3.95;93.76;97749.94;4198871;28;20221;-82
2022/12/04 02:39:44;;;;;;;23.35;12.95;;;;;;;3.99;93.55;97744.56;4188148;28;20661;-81
2022/12/04 02:41:52;;;;;;;26.55;14.00;;;;;;;4.05;93.74;97748.59;4195341;28;20757;-81
2022/12/04 02:43:56;;;;;;;24.27;14.75;;;;;;;4.07;93.81;97744.19;4196271;28;20208;-81
2022/12/04 02:46:04;;;;;;;28.60;14.48;;;;;;;4.03;94.16;97752.97;4197917;28;20291;-81
2022/12/04 02:48:08;;;;;;;28.10;13.93;;;;;;;4.00;93.85;97750.53;4202811;28;20626;-81
2022/12/04 02:50:14;;;;;;;25.15;13.60;;;;;;;3.95;93.60;97747.34;4198650;28;20300;-81
2022/12/04 02:52:22;;;;;;;25.52;14.07;;;;;;;3.93;94.09;97736.28;4200833;28;20210;-82
2022/12/04 02:54:30;;;;;;;25.80;13.35;;;;;;;3.96;94.39;97749.03;4197091;28;20197;-81
2022/12/04 02:56:37;;;;;;;23.77;13.85;;;;;;;3.93;94.25;97742.28;4200817;28;20201;-81
2022/12/04 02:58:44;;;;;;;27.83;14.05;;;;;;;4.01;93.79;97744.50;4194466;28;20208;-82
2022/12/04 03:00:49;;;;;;;27.08;14.38;;;;;;;3.95;93.94;97739.63;4189685;28;20213;-81
2022/12/04 03:02:56;;;;;;;24.52;13.65;;;;;;;3.91;94.96;97733.78;4190164;28;20197;-82
2022/12/04 03:05:03;;;;;;;23.25;13.23;;;;;;;3.97;93.91;97735.22;4204234;28;20326;-82
2022/12/04 03:07:12;;;;;;;25.75;13.85;;;;;;;4.00;94.19;97737.66;4190965;28;20761;-81
2022/12/04 03:09:19;;;;;;;25.38;13.95;;;;;;;3.94;93.70;97737.94;4207503;28;20626;-81
2022/12/04 03:11:24;;;;;;;29.95;14.82;;;;;;;3.92;94.48;97742.34;4199212;28;20723;-81
2022/12/04 03:13:31;;;;;;;30.77;15.43;;;;;;;3.94;94.05;97738.78;4187725;28;20199;-81
2022/12/04 03:15:37;;;;;;;31.98;15.60;;;;;;;4.00;94.00;97741.09;4203705;28;20200;-81
2022/12/04 03:17:46;;;;;;;25.40;14.00;;;;;;;4.01;93.21;97732.41;4203346;28;20603;-82
2022/12/04 03:19:55;;;;;;;28.88;14.10;;;;;;;4.02;93.60;97725.53;4203144;28;20691;-82
2022/12/04 03:22:04;;;;;;;25.10;14.18;;;;;;;4.03;93.94;97724.59;4204240;28;20201;-81
2022/12/04 03:24:13;;;;;;;26.10;13.60;;;;;;;3.99;94.18;97720.53;4206616;28;20220;-82
2022/12/04 03:26:23;;;;;;;28.35;14.70;;;;;;;3.98;94.10;97716.25;4185866;28;20205;-81
2022/12/04 03:28:31;;;;;;;26.23;13.40;;;;;;;3.97;93.50;97718.03;4203367;28;20738;-81
2022/12/04 03:30:39;;;;;;;24.83;13.45;;;;;;;3.96;94.36;97715.50;4203991;28;20592;-82
2022/12/04 03:32:46;;;;;;;22.10;12.23;;;;;;;3.89;93.33;97712.41;4192450;28;20275;-81
2022/12/04 03:34:55;;;;;;;25.63;13.95;;;;;;;3.92;94.08;97707.06;4185326;28;20219;-81
2022/12/04 03:37:04;;;;;;;26.88;14.13;;;;;;;4.00;94.55;97717.88;4207035;28;20233;-81
2022/12/04 03:39:13;;;;;;;25.50;14.20;;;;;;;3.99;94.07;97711.03;4204354;28;20216;-81
2022/12/04 03:41:22;;;;;;;25.67;14.57;;;;;;;3.98;94.05;97711.09;4204003;28;20650;-81
2022/12/04 03:43:27;;;;;;;26.45;14.80;;;;;;;3.98;93.71;97713.69;4202330;28;20224;-82
2022/12/04 03:45:38;;;;;;;24.17;13.50;;;;;;;3.93;93.86;97713.09;4203848;28;20641;-81
2022/12/04 03:47:46;;;;;;;26.98;14.63;;;;;;;3.96;94.62;97700.03;4197573;28;20224;-80
2022/12/04 03:49:53;;;;;;;23.90;13.43;;;;;;;3.99;94.24;97695.56;4192122;28;20220;-81
2022/12/04 03:52:00;;;;;;;25.50;14.57;;;;;;;4.01;94.55;97698.88;4204957;28;20266;-82
2022/12/04 03:54:06;;;;;;;24.35;12.90;;;;;;;4.06;94.48;97711.56;4199408;28;20215;-82
2022/12/04 03:56:14;;;;;;;22.17;13.55;;;;;;;4.12;93.46;97706.97;4187422;28;20205;-82
2022/12/04 03:58:20;;;;;;;26.02;12.77;;;;;;;4.03;93.53;97706.56;4192287;28;20599;-81
2022/12/04 04:00:24;;;;;;;27.10;14.77;;;;;;;4.03;93.97;97709.97;4189764;28;20699;-82
2022/12/04 04:02:33;;;;;;;22.60;13.27;;;;;;;4.05;93.77;97705.56;4201886;28;20215;-81
2022/12/04 04:04:37;;;;;;;27.95;15.63;;;;;;;4.10;94.70;97715.66;4207010;28;20231;-81
2022/12/04 04:06:46;;;;;;;25.00;14.98;;;;;;;4.10;93.59;97715.66;4206919;28;20708;-81
2022/12/04 04:08:53;;;;;;;26.80;13.50;;;;;;;4.10;94.45;97720.81;4202426;28;20209;-81
2022/12/04 04:11:00;;;;;;;27.80;14.60;;;;;;;4.02;92.94;97710.06;4199964;28;20216;-81
2022/12/04 04:25:03;;;;;;;22.55;12.50;;;;;;;3.78;95.00;97737.84;4201380;28;20568;-81
2022/12/04 04:27:06;;;;;;;23.92;13.80;;;;;;;3.82;95.00;97735.97;4198171;28;20205;-81
2022/12/04 04:29:11;;;;;;;22.48;12.35;;;;;;;3.81;93.77;97742.03;4197061;28;20197;-81
2022/12/04 04:31:21;;;;;;;23.48;12.32;;;;;;;3.80;94.45;97737.78;4180940;28;20248;-81
2022/12/04 04:33:25;;;;;;;22.95;13.18;;;;;;;3.75;94.67;97742.31;4185251;28;20208;-81
2022/12/04 04:35:32;;;;;;;25.05;13.65;;;;;;;3.72;95.16;97738.13;4196950;28;20209;-81
2022/12/04 04:37:41;;;;;;;24.75;13.10;;;;;;;3.74;95.15;97735.47;4204771;28;20304;-81
2022/12/04 04:39:51;;;;;;;27.58;14.25;;;;;;;3.82;95.38;97749.69;4204874;28;20326;-81
2022/12/04 04:41:56;;;;;;;23.63;13.48;;;;;;;3.87;94.21;97744.31;4204926;28;20233;-82
2022/12/04 04:44:06;;;;;;;22.85;13.05;;;;;;;3.85;93.97;97753.88;4204718;28;20304;-81
2022/12/04 04:46:13;;;;;;;23.67;13.57;;;;;;;3.87;95.30;97749.47;4196273;28;20201;-81
2022/12/04 04:48:20;;;;;;;23.65;13.18;;;;;;;3.87;94.78;97746.91;4202197;28;20274;-82
2022/12/04 04:50:23;;;;;;;24.02;13.13;;;;;;;3.88;94.80;97746.00;4201683;28;20205;-81
2022/12/04 04:52:26;;;;;;;19.63;12.10;;;;;;;3.91;94.83;97741.53;4182616;28;20210;-82
2022/12/04 04:54:31;;;;;;;21.52;12.88;;;;;;;3.91;94.26;97744.09;4200407;28;20208;-81
2022/12/04 04:56:40;;;;;;;23.35;13.40;;;;;;;3.90;94.35;97741.59;4188399;28;20206;-81
2022/12/04 04:58:43;;;;;;;25.02;13.23;;;;;;;3.89;94.50;97745.06;4207104;28;20216;-81
2022/12/04 05:00:53;;;;;;;22.85;12.50;;;;;;;3.86;93.54;97745.22;4200728;28;20225;-81
2022/12/04 05:02:56;;;;;;;21.23;11.93;;;;;;;3.88;94.33;97751.97;4201945;28;20200;-82
2022/12/04 05:04:59;;;;;;;23.08;13.32;;;;;;;3.93;94.97;97744.03;4179534;28;20340;-81
2022/12/04 05:07:02;;;;;;;22.30;13.00;;;;;;;3.94;95.08;97756.00;4204168;28;20197;-81
2022/12/04 05:09:05;;;;;;;23.17;13.40;;;;;;;3.94;93.83;97748.25;4197053;28;20669;-81
2022/12/04 05:11:13;;;;;;;24.88;12.95;;;;;;;3.95;93.88;97744.78;4197272;28;20629;-82
2022/12/04 05:13:17;;;;;;;24.35;13.40;;;;;;;3.98;94.90;97753.19;4188091;28;20254;-82
2022/12/04 05:15:20;;;;;;;22.83;12.95;;;;;;;3.98;94.61;97754.94;4183913;28;20221;-81
2022/12/04 05:17:23;;;;;;;23.30;12.52;;;;;;;4.02;94.72;97756.47;4197576;28;20205;-82
2022/12/04 05:21:47;;;;;;;24.10;13.07;;;;;;;4.03;94.53;97745.25;4190475;28;20287;-82
2022/12/04 05:23:51;;;;;;;22.48;12.32;;;;;;;4.07;95.09;97745.03;4207492;28;20250;-82
2022/12/04 05:25:59;;;;;;;24.00;13.10;;;;;;;4.14;93.70;97740.41;4201337;28;20263;-81
2022/12/04 05:28:03;;;;;;;20.88;13.30;;;;;;;4.15;93.64;97758.41;4186596;28;20205;-81
2022/12/04 05:30:08;;;;;;;25.75;12.27;;;;;;;4.18;94.09;97749.66;4200857;28;20198;-81
2022/12/04 05:32:11;;;;;;;21.20;12.32;;;;;;;4.17;93.87;97746.25;4200031;28;20296;-82
2022/12/04 05:34:14;;;;;;;24.45;14.07;;;;;;;4.15;94.33;97744.66;4198817;28;20240;-82
2022/12/04 05:36:17;;;;;;;20.83;12.00;;;;;;;4.17;93.07;97745.44;4200708;28;20291;-82
2022/12/04 05:38:20;;;;;;;23.85;15.07;;;;;;;4.18;93.50;97739.34;4182472;28;20350;-82
2022/12/04 05:40:23;;;;;;;23.25;12.60;;;;;;;4.19;93.55;97748.75;4201137;28;20205;-82
2022/12/04 05:42:26;;;;;;;21.88;11.98;;;;;;;4.18;93.15;97741.91;4207804;28;20201;-81
2022/12/04 05:44:30;;;;;;;20.42;11.70;;;;;;;4.20;93.82;97738.38;4196857;28;20304;-82
2022/12/04 05:46:33;;;;;;;21.63;12.20;;;;;;;4.19;93.42;97733.28;4200315;28;20213;-82
2022/12/04 05:48:36;;;;;;;21.40;12.55;;;;;;;4.12;93.03;97743.06;4200235;28;20294;-82
2022/12/04 05:50:39;;;;;;;18.98;10.70;;;;;;;4.07;92.58;97736.47;4189002;28;20208;-82
2022/12/04 05:52:43;;;;;;;22.63;11.90;;;;;;;3.98;93.58;97739.47;4191665;28;20898;-82
2022/12/04 05:54:46;;;;;;;23.80;12.68;;;;;;;3.99;94.18;97736.81;4185131;28;20669;-81
2022/12/04 05:56:48;;;;;;;21.08;12.45;;;;;;;4.02;94.08;97733.28;4187406;28;20201;-81
2022/12/04 05:58:52;;;;;;;24.05;11.73;;;;;;;4.03;93.74;97732.34;4195025;28;20303;-81
2022/12/04 06:00:56;;;;;;;23.92;12.50;;;;;;;4.03;93.96;97733.19;4214653;28;20722;-82
2022/12/04 06:02:59;;;;;;;20.90;12.18;;;;;;;4.03;93.13;97738.34;4201908;28;20212;-82
2022/12/04 06:05:03;;;;;;;24.08;13.13;;;;;;;4.01;93.36;97739.34;4191910;28;20225;-82
2022/12/04 06:07:06;;;;;;;22.15;11.50;;;;;;;4.01;93.73;97740.16;4189603;28;20205;-80
2022/12/04 06:09:09;;;;;;;21.70;12.38;;;;;;;4.07;93.12;97744.19;4191812;28;20217;-81
2022/12/04 06:11:12;;;;;;;19.70;11.88;;;;;;;4.07;93.43;97739.84;4199470;28;20205;-81
2022/12/04 06:13:15;;;;;;;21.63;12.80;;;;;;;4.07;94.54;97739.03;4197845;28;20652;-81
2022/12/04 06:15:18;;;;;;;21.98;12.10;;;;;;;4.06;94.06;97737.34;4200641;28;20577;-81
2022/12/04 06:17:23;;;;;;;21.27;12.55;;;;;;;4.07;93.61;97733.88;4196919;28;20696;-82
2022/12/04 06:19:26;;;;;;;22.73;12.82;;;;;;;4.09;93.46;97737.22;4193391;28;20644;-82
2022/12/04 06:21:31;;;;;;;24.40;13.10;;;;;;;4.10;94.51;97733.72;4197631;28;20231;-81
2022/12/04 06:23:33;;;;;;;20.08;10.80;;;;;;;4.07;94.09;97731.28;4183866;28;20248;-81
2022/12/04 06:25:36;;;;;;;23.63;12.55;;;;;;;4.03;94.49;97720.31;4186765;28;20813;-81
2022/12/04 06:27:39;;;;;;;22.63;12.57;;;;;;;4.09;93.94;97729.47;4189346;28;20501;-81
2022/12/04 06:29:42;;;;;;;23.38;12.95;;;;;;;4.08;93.59;97735.56;4185111;28;20206;-81
2022/12/04 06:31:46;;;;;;;23.92;13.00;;;;;;;4.06;94.16;97734.78;4191525;28;20235;-81
2022/12/04 06:33:50;;;;;;;23.38;12.73;;;;;;;4.06;93.42;97737.34;4200683;28;20216;-81
2022/12/04 06:35:58;;;;;;;23.80;13.68;;;;;;;4.09;94.08;97730.31;4198047;28;20243;-81
2022/12/04 06:38:01;;;;;;;24.63;11.98;;;;;;;4.04;93.42;97728.88;4190142;28;20209;-81
2022/12/04 06:40:05;;;;;;;20.20;11.82;;;;;;;4.06;93.72;97729.63;4202153;28;20224;-81
2022/12/04 06:42:08;;;;;;;20.40;11.60;;;;;;;4.04;93.42;97723.69;4200969;28;20625;-80
2022/12/04 06:44:11;;;;;;;19.90;11.90;;;;;;;4.07;95.04;97731.28;4206656;28;20247;-81
2022/12/04 06:46:17;;;;;;;22.92;11.68;;;;;;;4.09;93.85;97735.47;4188635;28;20202;-82
2022/12/04 06:48:20;;;;;;;23.85;12.73;;;;;;;4.07;93.69;97732.13;4209422;28;20288;-81
2022/12/04 06:50:24;;;;;;;22.40;12.35;;;;;;;4.10;95.24;97728.56;4206168;28;20193;-81
2022/12/04 06:52:27;;;;;;;22.77;13.18;;;;;;;4.12;95.21;97727.59;4207310;28;20703;-82
2022/12/04 06:54:30;;;;;;;25.20;13.07;;;;;;;4.16;94.19;97734.25;4188570;28;20709;-81
2022/12/04 06:56:34;;;;;;;22.63;12.32;;;;;;;4.21;94.40;97729.72;4198764;28;20677;-82
2022/12/04 06:58:37;;;;;;;21.20;12.30;;;;;;;4.29;94.67;97735.34;4201524;28;20208;-82
2022/12/04 07:00:40;;;;;;;21.35;12.88;;;;;;;4.34;94.00;97741.09;4205737;28;20231;-82
2022/12/04 07:02:43;;;;;;;28.95;14.05;;;;;;;4.37;94.06;97734.03;4189445;28;20204;-81
2022/12/04 07:04:47;;;;;;;21.83;11.88;;;;;;;4.37;93.71;97738.34;4205058;28;20274;-81
2022/12/04 07:06:51;;;;;;;22.48;12.77;;;;;;;4.36;92.82;97732.38;4193004;28;20234;-82
2022/12/04 07:08:57;;;;;;;23.00;12.40;;;;;;;4.36;93.54;97740.13;4188230;28;20213;-81
2022/12/04 07:11:01;;;;;;;21.83;11.98;;;;;;;4.32;93.21;97733.44;4205033;28;20704;-81
2022/12/04 07:13:06;;;;;;;23.40;13.13;;;;;;;4.31;93.04;97736.91;4202758;28;20209;-82
2022/12/04 07:15:10;;;;;;;21.52;11.60;;;;;;;4.20;94.12;97734.97;4206313;28;20283;-81
2022/12/04 07:17:13;;;;;;;22.27;11.85;;;;;;;4.20;93.21;97738.38;4193552;28;20209;-81
2022/12/04 07:19:16;;;;;;;22.25;12.45;;;;;;;4.23;93.08;97741.63;4207622;28;20720;-82
2022/12/04 07:21:21;;;;;;;22.23;12.43;;;;;;;4.26;93.27;97749.22;4205892;28;20627;-82
2022/12/04 07:23:25;;;;;;;22.80;12.68;;;;;;;4.27;93.74;97753.47;4190714;28;20246;-82
2022/12/04 07:25:30;;;;;;;18.10;10.57;;;;;;;4.32;93.95;97745.50;4209085;28;20205;-81
2022/12/04 07:27:33;;;;;;;28.10;13.50;;;;;;;4.36;93.27;97749.59;4201730;28;20209;-81
2022/12/04 07:29:36;;;;;;;20.50;11.98;;;;;;;4.40;94.31;97743.38;4200421;28;20194;-82
2022/12/04 07:31:39;;;;;;;22.08;12.05;;;;;;;4.44;93.01;97744.91;4198899;28;20201;-82
2022/12/04 07:33:43;;;;;;;21.58;12.45;;;;;;;4.44;93.64;97737.97;4210829;28;20341;-82
2022/12/04 07:35:54;;;;;;;22.42;13.85;;;;;;;4.43;93.09;97744.03;4198754;28;20214;-82
2022/12/04 07:37:58;;;;;;;24.73;13.52;;;;;;;4.42;92.56;97739.81;4192335;28;20205;-81
2022/12/04 07:40:02;;;;;;;25.13;13.95;;;;;;;4.45;93.44;97747.41;4204681;28;20244;-81
2022/12/04 07:42:05;;;;;;;24.58;14.63;;;;;;;4.42;93.08;97752.72;4193425;28;20341;-81
2022/12/04 07:44:08;;;;;;;27.10;13.40;;;;;;;4.38;91.92;97747.78;4201910;28;21085;-82
2022/12/04 07:46:13;;;;;;;20.58;12.55;;;;;;;4.32;92.59;97751.50;4190957;28;20205;-81
2022/12/04 07:48:21;;;;;;;21.45;11.70;;;;;;;4.30;93.28;97748.16;4204358;28;20207;-80
2022/12/04 07:50:24;;;;;;;26.55;14.43;;;;;;;4.31;93.32;97748.97;4202053;28;20718;-81
2022/12/04 07:52:27;;;;;;;22.73;13.65;;;;;;;4.27;93.13;97743.16;4203403;28;20243;-82
2022/12/04 07:54:30;;;;;;;23.33;12.77;;;;;;;4.24;93.15;97742.47;4200653;28;20740;-81
2022/12/04 07:56:34;;;;;;;21.30;12.65;;;;;;;4.27;94.48;97747.47;4200795;28;20229;-82
2022/12/04 07:58:37;;;;;;;24.75;12.70;;;;;;;4.30;93.84;97752.47;4202849;28;20239;-82
2022/12/04 08:00:41;;;;;;;22.92;11.73;;;;;;;4.26;93.24;97746.63;4203582;28;20250;-81
2022/12/04 08:02:44;;;;;;;21.23;11.95;;;;;;;4.23;93.87;97751.94;4200735;28;20203;-81
2022/12/04 08:04:47;;;;;;;21.05;12.70;;;;;;;4.27;94.01;97757.81;4190051;28;20287;-81
2022/12/04 08:06:51;;;;;;;22.70;13.68;;;;;;;4.27;93.34;97760.38;4188217;28;20256;-82
2022/12/04 08:08:54;;;;;;;20.05;11.40;;;;;;;4.24;93.67;97763.94;4207704;28;20639;-82
2022/12/04 08:10:57;;;;;;;21.90;11.77;;;;;;;4.23;93.19;97761.44;4195144;28;20201;-82
2022/12/04 08:13:01;;;;;;;20.60;11.10;;;;;;;4.27;93.11;97758.63;4182637;28;20206;-82
2022/12/04 08:15:05;;;;;;;20.60;11.80;;;;;;;4.31;93.86;97754.16;4209007;28;20201;-81
2022/12/04 08:17:08;;;;;;;20.55;11.68;;;;;;;4.30;93.05;97745.56;4192446;28;20965;-81
2022/12/04 08:19:12;;;;;;;27.08;14.45;;;;;;;4.36;93.13;97753.03;4206647;28;20213;-82
2022/12/04 08:21:18;;;;;;;19.65;11.35;;;;;;;4.30;92.91;97753.31;4201686;28;20276;-81
2022/12/04 08:23:21;;;;;;;20.55;12.13;;;;;;;4.32;93.57;97746.31;4204636;28;20202;-81
2022/12/04 08:25:24;;;;;;;20.60;12.10;;;;;;;4.34;92.94;97741.91;4191745;28;20211;-81
2022/12/04 08:27:27;;;;;;;19.52;11.20;;;;;;;4.38;93.37;97746.03;4188331;28;20206;-81
2022/12/04 08:29:31;;;;;;;22.73;11.60;;;;;;;4.31;92.53;97747.22;4198327;28;20255;-81
2022/12/04 08:31:35;;;;;;;27.58;14.68;;;;;;;4.34;92.32;97734.19;4190741;28;20689;-81
2022/12/04 08:33:40;;;;;;;21.73;12.15;;;;;;;4.32;92.27;97748.09;4211901;28;20287;-82
2022/12/04 08:35:44;;;;;;;17.35;11.90;;;;;;;4.30;92.85;97742.16;4203283;28;20205;-82
2022/12/04 08:37:47;;;;;;;18.05;10.57;;;;;;;4.22;92.17;97745.13;4193026;28;20214;-81
2022/12/04 08:39:50;;;;;;;17.40;11.07;;;;;;;4.20;92.80;97747.84;4206359;28;20217;-81
2022/12/04 08:41:53;;;;;;;18.27;10.43;;;;;;;4.19;93.46;97759.09;4205081;28;20220;-81
2022/12/04 08:43:59;;;;;;;18.95;11.10;;;;;;;4.17;93.13;97756.56;4200153;28;20694;-81
2022/12/04 08:46:06;;;;;;;17.40;10.15;;;;;;;4.17;93.96;97758.31;4186214;28;20229;-81
2022/12/04 08:48:13;;;;;;;21.70;13.15;;;;;;;4.20;93.92;97754.66;4187822;28;20313;-81
2022/12/04 08:50:16;;;;;;;22.02;11.52;;;;;;;4.26;93.53;97748.38;4205377;28;20239;-81
2022/12/04 08:52:19;;;;;;;28.55;18.83;;;;;;;4.32;93.00;97756.66;4202141;28;20545;-81
2022/12/04 08:54:22;;;;;;;20.08;12.35;;;;;;;4.34;93.22;97759.97;4198352;28;20797;-81
2022/12/04 08:56:27;;;;;;;20.02;12.50;;;;;;;4.41;93.72;97763.94;4205140;28;20205;-81
2022/12/04 08:58:30;;;;;;;19.08;11.57;;;;;;;4.42;92.47;97765.63;4205992;28;20233;-81
2022/12/04 09:00:34;;;;;;;18.58;11.40;;;;;;;4.44;92.44;97776.69;4185418;28;20257;-82
2022/12/04 09:02:38;;;;;;;18.20;10.80;;;;;;;4.48;93.28;97779.94;4199341;28;20206;-82
2022/12/04 09:04:41;;;;;;;17.88;11.73;;;;;;;4.53;92.68;97783.16;4202329;28;20231;-81
2022/12/04 09:06:45;;;;;;;20.05;10.45;;;;;;;4.56;92.33;97776.09;4199879;28;20209;-80
2022/12/04 09:08:50;;;;;;;16.42;10.48;;;;;;;4.63;91.73;97782.63;4199268;28;20227;-81
2022/12/04 09:10:53;;;;;;;21.33;10.20;;;;;;;4.69;92.56;97788.31;4187918;28;20639;-82
2022/12/04 09:12:56;;;;;;;16.45;10.23;;;;;;;4.72;91.58;97795.06;4190253;28;20205;-81
2022/12/04 09:14:59;;;;;;;18.73;11.00;;;;;;;4.73;92.18;97799.31;4198741;28;20206;-81
2022/12/04 09:17:02;;;;;;;18.48;9.88;;;;;;;4.74;91.73;97801.81;4186551;28;20197;-81
2022/12/04 09:19:07;;;;;;;17.30;9.55;;;;;;;4.72;90.50;97788.16;4204904;28;20205;-82
2022/12/04 09:21:11;;;;;;;25.88;14.50;;;;;;;4.75;90.73;97788.00;4198669;28;20712;-81
2022/12/04 09:23:15;;;;;;;18.58;10.25;;;;;;;4.78;91.69;97789.59;4200138;28;20205;-81
2022/12/04 09:25:18;;;;;;;18.85;11.10;;;;;;;4.80;91.11;97792.94;4203768;28;20320;-81
2022/12/04 09:27:24;;;;;;;19.60;10.90;;;;;;;4.80;91.12;97786.03;4208553;28;20205;-81
2022/12/04 09:29:27;;;;;;;18.83;9.57;;;;;;;4.78;91.49;97787.84;4191173;28;20289;-81
2022/12/04 09:31:31;;;;;;;18.52;11.32;;;;;;;4.79;91.48;97786.09;4202299;28;20669;-81
2022/12/04 09:33:34;;;;;;;20.10;11.10;;;;;;;4.82;90.63;97783.34;4197375;28;20231;-81
2022/12/04 09:35:39;;;;;;;19.23;10.35;;;;;;;4.86;91.22;97779.72;4190272;28;20734;-81
2022/12/04 09:37:42;;;;;;;18.48;9.85;;;;;;;4.87;91.05;97771.03;4203477;28;20215;-81
2022/12/04 09:39:45;;;;;;;26.35;14.73;;;;;;;4.90;91.55;97770.88;4198717;28;20676;-81
2022/12/04 09:42:05;;;;;;;16.73;9.55;;;;;;;4.93;91.05;97774.16;4192316;28;20234;-81
2022/12/04 09:44:11;;;;;;;15.98;9.38;;;;;;;4.95;90.89;97759.41;4204199;28;20258;-81
2022/12/04 09:46:17;;;;;;;17.15;10.13;;;;;;;5.00;90.35;97752.25;4191153;28;20211;-81
2022/12/04 09:48:22;;;;;;;17.73;10.00;;;;;;;5.07;90.42;97757.97;4203571;28;20550;-82
2022/12/04 09:50:29;;;;;;;21.10;12.10;;;;;;;5.10;90.06;97737.09;4183642;28;20238;-81
2022/12/04 09:52:44;;;;;;;18.90;10.73;;;;;;;5.11;90.15;97734.44;4199007;28;20217;-81
2022/12/04 09:54:47;;;;;;;17.95;10.85;;;;;;;5.15;90.81;97731.59;4199599;28;20221;-81